Time;durP1;ratioP1;P1;durP2;ratioP2;P2;SDS_P1;SDS_P2;PMS_P1;PMS_P2;Temp;Humidity;BMP_temperature;BMP_pressure;BME280_temperature;BME280_humidity;BME280_pressure;Samples;Min_cycle;Max_cycle;Signal;HPM_P1;HPM_P2
2022/05/26 00:01:26;;;;;;;23.60;7.53;;;;;;;;;;5077187;28;20040;-84
2022/05/26 00:03:52;;;;;;;28.88;7.80;;;;;;;;;;5062436;28;20051;-83
2022/05/26 00:06:20;;;;;;;32.70;9.25;;;14.50;99.90;;;;;;5061520;28;20048;-83
2022/05/26 00:08:47;;;;;;;29.70;8.40;;;;;;;;;;5063075;28;20044;-83
2022/05/26 00:11:17;;;;;;;29.38;8.50;;;14.40;99.90;;;;;;5074967;28;20115;-83
2022/05/26 00:13:43;;;;;;;22.60;9.13;;;;;;;;;;5059540;28;20048;-84
2022/05/26 00:16:09;;;;;;;25.60;8.13;;;;;;;;;;5059521;28;20408;-84
2022/05/26 00:18:36;;;;;;;30.13;7.57;;;;;;;;;;5076328;28;20091;-84
2022/05/26 00:21:02;;;;;;;16.80;7.88;;;;;;;;;;5057664;28;20039;-84
2022/05/26 00:23:28;;;;;;;21.00;8.55;;;;;;;;;;5075385;28;20139;-83
2022/05/26 00:25:54;;;;;;;28.55;7.30;;;;;;;;;;5058786;28;20080;-84
2022/05/26 00:28:20;;;;;;;17.70;7.22;;;;;;;;;;5055566;28;20044;-83
2022/05/26 00:30:48;;;;;;;29.05;8.15;;;;;;;;;;5056872;28;20587;-85
2022/05/26 00:33:16;;;;;;;19.52;7.10;;;14.30;99.90;;;;;;5046035;28;20041;-83
2022/05/26 00:35:42;;;;;;;22.80;8.25;;;;;;;;;;5056187;28;20051;-83
2022/05/26 00:38:09;;;;;;;22.67;8.07;;;;;;;;;;5059194;28;20052;-84
2022/05/26 00:40:35;;;;;;;25.88;9.27;;;;;;;;;;5075768;28;20507;-83
2022/05/26 00:43:02;;;;;;;29.80;9.95;;;;;;;;;;5073125;28;20043;-83
2022/05/26 00:45:40;;;;;;;37.03;9.75;;;14.10;99.90;;;;;;5058793;28;20568;-85
2022/05/26 00:48:10;;;;;;;23.92;7.88;;;14.20;99.90;;;;;;5075351;28;20457;-83
2022/05/26 00:50:42;;;;;;;21.73;7.95;;;;;;;;;;5058544;28;20054;-83
2022/05/26 00:53:13;;;;;;;26.42;7.65;;;;;;;;;;5072973;28;20040;-83
2022/05/26 00:55:42;;;;;;;23.55;7.70;;;;;;;;;;5071523;28;20083;-83
2022/05/26 00:58:14;;;;;;;27.75;8.00;;;14.40;99.90;;;;;;5074033;28;20052;-83
2022/05/26 01:00:41;;;;;;;31.00;8.82;;;;;;;;;;5057529;28;20404;-83
2022/05/26 01:03:08;;;;;;;32.80;8.45;;;;;;;;;;5073276;28;20079;-83
2022/05/26 01:05:39;;;;;;;26.52;9.00;;;;;;;;;;5075064;28;20526;-83
2022/05/26 01:08:16;;;;;;;30.70;9.20;;;14.20;99.90;;;;;;5057589;28;20055;-86
2022/05/26 01:10:42;;;;;;;25.25;7.00;;;;;;;;;;5073090;28;20048;-84
2022/05/26 01:13:09;;;;;;;23.20;7.68;;;;;;;;;;5091261;28;20040;-85
2022/05/26 01:15:37;;;;;;;30.55;7.53;;;13.90;99.90;;;;;;5074632;28;20056;-84
2022/05/26 01:18:22;;;;;;;29.00;7.15;;;14.00;99.90;;;;;;5074921;28;20484;-84
2022/05/26 01:21:14;;;;;;;21.20;7.43;;;14.00;99.90;;;;;;5074636;28;20071;-84
2022/05/26 01:23:40;;;;;;;23.55;7.70;;;;;;;;;;5072816;28;20052;-86
2022/05/26 01:26:06;;;;;;;25.00;6.45;;;;;;;;;;5074976;28;20040;-84
2022/05/26 01:28:32;;;;;;;21.40;5.80;;;;;;;;;;5074698;28;20453;-85
2022/05/26 01:31:10;;;;;;;20.85;6.50;;;;;;;;;;5072691;28;20040;-84
2022/05/26 01:33:36;;;;;;;21.10;5.40;;;;;;;;;;5058172;28;20396;-84
2022/05/26 01:36:14;;;;;;;18.85;6.28;;;;;;;;;;5073905;28;20573;-83
2022/05/26 01:39:02;;;;;;;30.25;6.72;;;;;;;;;;5057427;28;20083;-84
2022/05/26 01:41:54;;;;;;;22.52;7.05;;;14.10;99.90;;;;;;5047963;28;20053;-84
2022/05/26 01:44:35;;;;;;;25.80;7.15;;;;;;;;;;5068832;28;20500;-85
2022/05/26 01:47:03;;;;;;;34.95;7.90;;;;;;;;;;5074096;28;20048;-83
2022/05/26 01:49:43;;;;;;;21.20;7.07;;;;;;;;;;5072204;28;20363;-83
2022/05/26 01:52:27;;;;;;;23.83;7.18;;;;;;;;;;5054286;28;20492;-83
2022/05/26 01:55:05;;;;;;;19.92;7.43;;;;;;;;;;5055428;28;20084;-83
2022/05/26 01:57:47;;;;;;;23.00;7.68;;;14.10;99.90;;;;;;5037643;28;20052;-84
2022/05/26 02:00:17;;;;;;;21.80;6.53;;;14.10;99.90;;;;;;5055707;28;20489;-83
2022/05/26 02:02:55;;;;;;;32.75;7.30;;;14.20;99.90;;;;;;5073834;28;20143;-83
2022/05/26 02:05:25;;;;;;;14.02;5.60;;;14.00;99.90;;;;;;5056977;28;20131;-84
2022/05/26 02:07:54;;;;;;;21.08;6.85;;;;;;;;;;5057192;28;20378;-84
2022/05/26 02:10:26;;;;;;;27.88;6.43;;;;;;;;;;5046950;28;20051;-84
2022/05/26 02:12:57;;;;;;;30.38;6.47;;;14.20;99.90;;;;;;5037249;28;20559;-83
2022/05/26 02:15:29;;;;;;;20.63;6.70;;;;;;;;;;5037639;28;20516;-84
2022/05/26 02:18:01;;;;;;;26.88;7.13;;;;;;;;;;5054206;28;20501;-83
2022/05/26 02:20:41;;;;;;;24.00;5.75;;;14.00;99.90;;;;;;5060070;28;20396;-85
2022/05/26 02:23:17;;;;;;;22.52;6.10;;;14.00;99.90;;;;;;5074299;28;20127;-87
2022/05/26 02:25:43;;;;;;;24.55;6.82;;;;;;;;;;5073942;28;20040;-84
2022/05/26 02:28:10;;;;;;;20.83;6.93;;;;;;;;;;5057327;28;20090;-86
2022/05/26 02:30:40;;;;;;;21.48;5.68;;;13.80;99.90;;;;;;5055519;28;20040;-88
2022/05/26 02:33:07;;;;;;;18.50;5.10;;;;;;;;;;5073972;28;20044;-87
2022/05/26 02:35:37;;;;;;;24.17;5.38;;;;;;;;;;5056926;28;20500;-87
2022/05/26 02:38:16;;;;;;;17.63;4.93;;;14.00;99.90;;;;;;5073652;28;20554;-90
2022/05/26 02:40:42;;;;;;;19.65;5.20;;;;;;;;;;5074171;28;20096;-88
2022/05/26 02:43:14;;;;;;;23.77;5.40;;;13.90;99.90;;;;;;5039575;28;20515;-87
2022/05/26 02:46:09;;;;;;;23.83;5.38;;;14.00;99.90;;;;;;5017338;28;20048;-85
2022/05/26 02:49:02;;;;;;;19.88;4.93;;;13.70;99.90;;;;;;5033767;28;20493;-88
2022/05/26 02:51:43;;;;;;;12.70;4.10;;;;;;;;;;5045034;28;20094;-91
2022/05/26 02:54:31;;;;;;;16.55;5.45;;;13.80;99.90;;;;;;5053865;28;20040;-86
2022/05/26 02:57:07;;;;;;;14.07;3.97;;;13.90;99.90;;;;;;5070739;28;20051;-89
2022/05/26 02:59:39;;;;;;;19.33;5.25;;;;;;;;;;5057169;28;20087;-86
2022/05/26 03:02:25;;;;;;;18.35;4.97;;;13.80;99.90;;;;;;5064005;28;20497;-86
2022/05/26 03:05:03;;;;;;;13.63;4.03;;;;;;;;;;5036971;28;20052;-86
2022/05/26 03:07:30;;;;;;;16.02;4.85;;;;;;;;;;5036982;28;20049;-86
2022/05/26 03:09:56;;;;;;;22.23;4.53;;;;;;;;;;5036172;28;20538;-90
2022/05/26 03:12:32;;;;;;;21.27;4.93;;;;;;;;;;5037833;28;20043;-88
2022/05/26 03:14:59;;;;;;;13.70;4.57;;;;;;;;;;5036926;28;20492;-86
2022/05/26 03:17:25;;;;;;;16.90;4.90;;;;;;;;;;5037053;28;20037;-86
2022/05/26 03:19:51;;;;;;;22.15;4.93;;;;;;;;;;5036668;28;20090;-86
2022/05/26 03:22:17;;;;;;;20.23;4.82;;;;;;;;;;5062058;28;20047;-86
2022/05/26 03:24:43;;;;;;;12.98;4.22;;;;;;;;;;5072811;28;20441;-88
2022/05/26 03:27:09;;;;;;;11.43;3.67;;;;;;;;;;5056764;28;20042;-83
2022/05/26 03:29:35;;;;;;;19.10;4.53;;;;;;;;;;5072183;28;20094;-90
2022/05/26 03:32:01;;;;;;;13.50;2.88;;;;;;;;;;5072489;28;20082;-90
2022/05/26 03:42:44;;;;;;;12.55;3.08;;;13.50;99.90;;;;;;5093066;28;20507;-88
2022/05/26 03:45:10;;;;;;;14.27;3.42;;;;;;;;;;5076822;28;20442;-89
2022/05/26 03:47:36;;;;;;;9.57;2.80;;;;;;;;;;5077003;28;20134;-86
2022/05/26 03:50:02;;;;;;;13.75;3.05;;;;;;;;;;5060634;28;20048;-86
2022/05/26 03:52:28;;;;;;;15.55;2.60;;;;;;;;;;5076457;28;20048;-89
2022/05/26 03:54:54;;;;;;;14.32;2.97;;;;;;;;;;5094641;28;20104;-90
2022/05/26 03:57:24;;;;;;;4.68;2.50;;;;;;;;;;5076037;28;20076;-89
2022/05/26 03:59:50;;;;;;;11.45;3.28;;;;;;;;;;5059939;28;20056;-88
2022/05/26 04:02:16;;;;;;;7.40;2.38;;;;;;;;;;5055010;28;20033;-85
2022/05/26 04:04:42;;;;;;;5.07;2.45;;;;;;;;;;5056223;28;20079;-89
2022/05/26 04:07:09;;;;;;;13.43;2.47;;;;;;;;;;5039787;28;20210;-88
2022/05/26 04:09:35;;;;;;;11.05;2.83;;;;;;;;;;5039313;28;20040;-90
2022/05/26 04:12:01;;;;;;;6.85;2.65;;;;;;;;;;5039674;28;20044;-87
2022/05/26 04:14:27;;;;;;;13.85;2.22;;;;;;;;;;5053939;28;20377;-88
2022/05/26 04:16:53;;;;;;;10.57;2.60;;;;;;;;;;5038393;28;20509;-86
2022/05/26 04:19:19;;;;;;;6.43;2.28;;;;;;;;;;5035917;28;20054;-83
2022/05/26 04:24:29;;;;;;;12.25;2.40;;;;;;;;;;5055447;28;20044;-86
2022/05/26 04:26:55;;;;;;;6.00;1.90;;;;;;;;;;5039001;28;20044;-86
2022/05/26 04:29:23;;;;;;;6.47;2.17;;;;;;;;;;5055716;28;20040;-87
2022/05/26 04:31:50;;;;;;;8.93;2.22;;;;;;;;;;5039395;28;20117;-87
2022/05/26 04:34:16;;;;;;;5.82;2.40;;;;;;;;;;5053962;28;20051;-87
2022/05/26 04:36:42;;;;;;;7.18;2.15;;;;;;;;;;5039175;28;20101;-85
2022/05/26 04:39:08;;;;;;;7.18;2.10;;;;;;;;;;5056042;28;20048;-85
2022/05/26 04:41:35;;;;;;;6.25;1.95;;;;;;;;;;5039067;28;20044;-85
2022/05/26 04:44:01;;;;;;;6.30;2.13;;;;;;;;;;5055552;28;20341;-87
2022/05/26 04:46:27;;;;;;;8.35;2.50;;;;;;;;;;5056144;28;20086;-88
2022/05/26 04:48:53;;;;;;;10.02;2.13;;;;;;;;;;5067976;28;20044;-88
2022/05/26 04:51:19;;;;;;;9.00;2.13;;;;;;;;;;5056754;28;20045;-88
2022/05/26 04:53:45;;;;;;;5.57;2.30;;;;;;;;;;5058276;28;20048;-90
2022/05/26 04:56:12;;;;;;;8.95;1.98;;;;;;;;;;5074522;28;20043;-89
2022/05/26 04:58:38;;;;;;;11.15;2.25;;;;;;;;;;5060118;28;20043;-89
2022/05/26 05:01:17;;;;;;;6.78;1.63;;;13.20;99.90;;;;;;5076547;28;20483;-88
2022/05/26 05:03:44;;;;;;;6.35;1.85;;;;;;;;;;5060304;28;20044;-88
2022/05/26 05:06:10;;;;;;;6.28;1.98;;;;;;;;;;5074331;28;20040;-86
2022/05/26 05:08:37;;;;;;;6.82;2.03;;;;;;;;;;5059676;28;20050;-90
2022/05/26 05:11:03;;;;;;;3.53;1.70;;;;;;;;;;5058616;28;20473;-90
2022/05/26 05:13:29;;;;;;;10.75;1.73;;;;;;;;;;5058262;28;20048;-86
2022/05/26 05:16:06;;;;;;;15.48;2.20;;;;;;;;;;5075040;28;20103;-89
2022/05/26 05:18:32;;;;;;;7.28;2.10;;;;;;;;;;5040001;28;20044;-89
2022/05/26 05:21:01;;;;;;;6.80;2.00;;;;;;;;;;5036249;28;20087;-89
2022/05/26 05:23:28;;;;;;;10.80;2.15;;;;;;;;;;5071979;28;20140;-87
2022/05/26 05:25:55;;;;;;;9.32;2.22;;;;;;;;;;5071316;28;20094;-85
2022/05/26 05:28:35;;;;;;;6.03;1.75;;;;;;;;;;5072201;28;20044;-87
2022/05/26 05:31:04;;;;;;;9.93;2.22;;;;;;;;;;5072061;28;20056;-88
2022/05/26 05:33:39;;;;;;;5.15;2.22;;;;;;;;;;5063158;28;20052;-88
2022/05/26 05:36:07;;;;;;;3.97;2.33;;;;;;;;;;5071498;28;20052;-87
2022/05/26 05:38:38;;;;;;;4.97;2.08;;;;;;;;;;5051536;28;20041;-89
2022/05/26 05:41:04;;;;;;;8.40;2.20;;;;;;;;;;5068838;28;20048;-86
2022/05/26 05:43:31;;;;;;;9.63;2.20;;;;;;;;;;5053174;28;20041;-87
2022/05/26 05:45:57;;;;;;;4.25;1.77;;;;;;;;;;5050365;28;20045;-85
2022/05/26 05:48:23;;;;;;;10.45;1.63;;;;;;;;;;5034045;28;20086;-87
2022/05/26 05:50:49;;;;;;;6.35;1.60;;;;;;;;;;5042020;28;20052;-86
2022/05/26 05:53:15;;;;;;;9.07;1.90;;;;;;;;;;5037576;28;20467;-86
2022/05/26 05:55:42;;;;;;;5.15;1.92;;;;;;;;;;5036534;28;20500;-87
2022/05/26 05:58:09;;;;;;;9.48;1.80;;;;;;;;;;5037683;28;20032;-86
2022/05/26 06:00:36;;;;;;;4.47;1.65;;;;;;;;;;5036158;28;20112;-86
2022/05/26 06:03:02;;;;;;;3.55;1.90;;;;;;;;;;5051154;28;20106;-84
2022/05/26 06:05:28;;;;;;;9.05;1.77;;;;;;;;;;5074758;28;20048;-84
2022/05/26 06:07:54;;;;;;;15.23;2.50;;;;;;;;;;5057868;28;20415;-84
2022/05/26 06:10:20;;;;;;;7.30;1.63;;;;;;;;;;5057442;28;20048;-84
2022/05/26 06:12:46;;;;;;;11.63;1.90;;;;;;;;;;5056636;28;20047;-84
2022/05/26 06:15:13;;;;;;;7.68;1.63;;;;;;;;;;5057099;28;20051;-84
2022/05/26 06:17:39;;;;;;;8.85;2.15;;;;;;;;;;5073881;28;20054;-88
2022/05/26 06:20:06;;;;;;;4.20;1.67;;;14.60;99.90;;;;;;5057157;28;20050;-86
2022/05/26 06:22:37;;;;;;;8.52;1.77;;;;;;;;;;5068825;28;20123;-86
2022/05/26 06:25:04;;;;;;;4.32;1.73;;;;;;;;;;5053917;28;20082;-84
2022/05/26 06:30:16;;;;;;;3.35;1.70;;;;;;;;;;5091161;28;20040;-86
2022/05/26 06:38:16;;;;;;;6.13;1.67;;;;;;;;;;5083684;28;20044;-85
2022/05/26 06:40:42;;;;;;;8.15;1.42;;;;;;;;;;5091677;28;20101;-84
2022/05/26 06:43:08;;;;;;;8.18;2.15;;;;;;;;;;5072277;28;20480;-84
2022/05/26 06:45:35;;;;;;;9.95;2.40;;;;;;;;;;5056519;28;20048;-85
2022/05/26 06:48:01;;;;;;;7.53;1.73;;;;;;;;;;5036535;28;20036;-86
2022/05/26 06:50:27;;;;;;;3.63;1.23;;;;;;;;;;5071144;28;20524;-84
2022/05/26 06:52:53;;;;;;;1.80;1.38;;;;;;;;;;5071268;28;20044;-86
2022/05/26 06:55:19;;;;;;;6.43;1.48;;;;;;;;;;5061585;28;20044;-85
2022/05/26 06:57:46;;;;;;;6.35;1.90;;;;;;;;;;5056529;28;20079;-86
2022/05/26 07:00:13;;;;;;;8.98;1.73;;;15.10;99.90;;;;;;5056639;28;20393;-85
2022/05/26 07:02:39;;;;;;;2.45;1.30;;;;;;;;;;5057365;28;20136;-88
2022/05/26 07:05:05;;;;;;;2.72;1.42;;;15.10;99.90;;;;;;5070923;28;20104;-87
2022/05/26 07:07:34;;;;;;;4.22;1.35;;;;;;;;;;5039705;28;20044;-87
2022/05/26 07:10:00;;;;;;;5.65;1.35;;;;;;;;;;5040899;28;20049;-86
2022/05/26 07:12:26;;;;;;;3.72;1.40;;;;;;;;;;5040989;28;20189;-87
2022/05/26 07:14:53;;;;;;;4.43;1.85;;;;;;;;;;5040985;28;20109;-85
2022/05/26 07:17:20;;;;;;;6.88;1.63;;;;;;;;;;5041013;28;20036;-85
2022/05/26 07:19:46;;;;;;;5.07;1.38;;;15.10;99.90;;;;;;5061139;28;20467;-88
2022/05/26 07:22:13;;;;;;;4.50;1.63;;;;;;;;;;5077466;28;20090;-87
2022/05/26 07:24:39;;;;;;;4.72;1.55;;;;;;;;;;5077342;28;20048;-84
2022/05/26 07:27:06;;;;;;;6.55;1.50;;;;;;;;;;5075442;28;20040;-86
2022/05/26 07:29:32;;;;;;;6.03;1.50;;;;;;;;;;5060678;28;20040;-85
2022/05/26 07:31:58;;;;;;;3.10;1.48;;;;;;;;;;5060330;28;20044;-85
2022/05/26 07:34:24;;;;;;;10.25;1.52;;;;;;;;;;5060293;28;20040;-85
2022/05/26 07:42:24;;;;;;;6.95;1.83;;;15.40;99.90;;;;;;5056945;28;20131;-84
2022/05/26 07:44:51;;;;;;;9.18;2.60;;;;;;;;;;5074901;28;20469;-84
2022/05/26 07:47:17;;;;;;;2.33;1.35;;;;;;;;;;5074617;28;20049;-85
2022/05/26 07:49:47;;;;;;;4.35;1.33;;;15.50;99.90;;;;;;5076119;28;20123;-86
2022/05/26 07:52:14;;;;;;;1.67;1.13;;;;;;;;;;5076485;28;20047;-84
2022/05/26 07:54:41;;;;;;;5.97;1.55;;;;;;;;;;5094866;28;20048;-84
2022/05/26 07:57:07;;;;;;;9.88;1.60;;;;;;;;;;5095170;28;20127;-85
2022/05/26 07:59:34;;;;;;;6.60;1.50;;;;;;;;;;5093037;28;20408;-85
2022/05/26 08:02:00;;;;;;;5.63;1.20;;;;;;;;;;5095016;28;20389;-84
2022/05/26 08:04:26;;;;;;;7.57;1.42;;;;;;;;;;5060056;28;20086;-85
2022/05/26 08:06:52;;;;;;;5.28;1.30;;;;;;;;;;5076431;28;20036;-86
2022/05/26 08:09:20;;;;;;;5.03;1.30;;;15.70;99.90;;;;;;5055388;28;20060;-85
2022/05/26 08:11:46;;;;;;;5.57;1.40;;;;;;;;;;5039683;28;20050;-85
2022/05/26 08:14:13;;;;;;;12.63;1.50;;;;;;;;;;5039373;28;20102;-85
2022/05/26 08:16:39;;;;;;;7.90;1.45;;;;;;;;;;5056036;28;20140;-83
2022/05/26 08:19:05;;;;;;;6.25;1.35;;;;;;;;;;5054364;28;20048;-84
2022/05/26 08:21:39;;;;;;;4.75;1.60;;;;;;;;;;5055218;28;20400;-85
2022/05/26 08:24:05;;;;;;;2.58;0.93;;;;;;;;;;5049481;28;20071;-85
2022/05/26 08:26:31;;;;;;;3.15;1.83;;;;;;;;;;5072993;28;20046;-85
2022/05/26 08:28:58;;;;;;;9.10;2.05;;;;;;;;;;5073188;28;20129;-85
2022/05/26 08:31:24;;;;;;;4.72;1.58;;;;;;;;;;5055223;28;20044;-84
2022/05/26 08:33:50;;;;;;;4.18;1.30;;;;;;;;;;5055467;28;20124;-84
2022/05/26 08:36:24;;;;;;;5.68;1.05;;;;;;;;;;5041620;28;20465;-84
2022/05/26 08:38:50;;;;;;;;;;;;;;;;;;5036885;28;20122;-84
2022/05/26 08:41:19;;;;;;;7.75;1.73;;;;;;;;;;5035224;28;19920;-85
2022/05/26 08:43:48;;;;;;;6.75;1.30;;;;;;;;;;5033840;28;20040;-84
2022/05/26 08:46:17;;;;;;;3.35;1.65;;;16.50;99.90;;;;;;5068981;28;20075;-83
2022/05/26 08:49:02;;;;;;;7.30;2.20;;;;;;;;;;5072592;28;20457;-85
2022/05/26 08:51:41;;;;;;;4.53;1.30;;;;;;;;;;5049546;28;20048;-84
2022/05/26 08:54:08;;;;;;;8.25;1.33;;;;;;;;;;5033557;28;20215;-84
2022/05/26 08:56:35;;;;;;;3.65;1.45;;;;;;;;;;5051092;28;20128;-84
2022/05/26 08:59:10;;;;;;;5.78;1.92;;;16.60;99.90;;;;;;5047402;28;20081;-84
2022/05/26 09:01:36;;;;;;;4.68;1.55;;;;;;;;;;5073692;28;20052;-85
2022/05/26 09:04:02;;;;;;;6.47;1.13;;;;;;;;;;5056875;28;20417;-86
2022/05/26 09:06:29;;;;;;;5.10;1.50;;;16.40;99.90;;;;;;5046109;28;20135;-85
2022/05/26 09:14:09;;;;;;;4.72;2.67;;;16.60;99.90;;;;;;5064208;28;20421;-84
2022/05/26 09:16:42;;;;;;;6.72;1.45;;;16.80;99.90;;;;;;5056040;28;20441;-84
2022/05/26 09:19:16;;;;;;;3.40;1.20;;;;;;;;;;5052663;28;20408;-84
2022/05/26 09:21:44;;;;;;;4.15;1.10;;;16.70;99.90;;;;;;5036315;28;20048;-84
2022/05/26 09:24:18;;;;;;;4.32;1.25;;;;;;;;;;5036667;28;20084;-83
2022/05/26 09:26:58;;;;;;;5.68;1.00;;;17.10;99.90;;;;;;5037164;28;20102;-84
2022/05/26 09:29:33;;;;;;;6.35;1.40;;;17.20;99.90;;;;;;5036898;28;20059;-84
2022/05/26 09:32:01;;;;;;;2.38;1.00;;;17.10;99.90;;;;;;5068859;28;20036;-83
2022/05/26 09:34:34;;;;;;;9.35;1.23;;;;;;;;;;5090855;28;20089;-85
2022/05/26 09:37:03;;;;;;;4.28;0.93;;;17.40;99.90;;;;;;5092623;28;20048;-85
2022/05/26 09:39:37;;;;;;;3.20;1.30;;;;;;;;;;5056437;28;20534;-84
2022/05/26 09:42:28;;;;;;;2.80;0.95;;;17.50;99.90;;;;;;5071551;28;20048;-84
2022/05/26 09:44:56;;;;;;;2.45;0.80;;;;;;;;;;4973755;28;20482;-84
2022/05/26 09:47:25;;;;;;;5.80;1.00;;;;;;;;;;4958848;28;20062;-85
2022/05/26 09:49:52;;;;;;;2.47;0.98;;;;;;;;;;4974603;28;20065;-85
2022/05/26 09:52:23;;;;;;;3.88;1.15;;;17.60;99.90;;;;;;4961504;28;20038;-83
2022/05/26 09:55:06;;;;;;;5.78;0.98;;;17.70;99.90;;;;;;4974851;28;20145;-84
2022/05/26 09:57:35;;;;;;;0.95;0.80;;;;;;;;;;4990856;28;20042;-85
2022/05/26 10:00:01;;;;;;;2.50;1.00;;;;;;;;;;4974097;28;20502;-84
2022/05/26 10:02:27;;;;;;;1.77;0.90;;;;;;;;;;4966764;28;20050;-84
2022/05/26 10:05:12;;;;;;;2.67;1.45;;;;;;;;;;4968956;28;20042;-84
2022/05/26 10:07:38;;;;;;;4.78;1.20;;;;;;;;;;4973609;28;20042;-85
2022/05/26 10:10:59;;;;;;;3.13;1.15;;;17.70;99.90;;;;;;4974650;28;20066;-84
2022/05/26 10:13:26;;;;;;;10.13;1.00;;;;;;;;;;4895644;29;20063;-84
2022/05/26 10:15:52;;;;;;;3.22;1.05;;;;;;;;;;4891499;29;20072;-84
2022/05/26 10:18:18;;;;;;;2.92;1.42;;;;;;;;;;4896038;29;20455;-84
2022/05/26 10:20:55;;;;;;;3.80;0.90;;;17.80;99.90;;;;;;4898091;28;20066;-84
2022/05/26 10:23:21;;;;;;;6.40;1.30;;;;;;;;;;4955337;28;20553;-84
2022/05/26 10:26:14;;;;;;;2.33;1.17;;;17.90;99.90;;;;;;4937505;28;20114;-84
2022/05/26 10:29:14;;;;;;;6.63;1.70;;;17.80;99.90;;;;;;4948790;28;20122;-82
2022/05/26 10:31:44;;;;;;;2.88;1.25;;;17.80;99.90;;;;;;4946034;28;20658;-83
2022/05/26 10:34:47;;;;;;;6.20;1.42;;;17.80;99.90;;;;;;4956683;28;20042;-83
2022/05/26 10:37:51;;;;;;;8.48;1.92;;;17.70;99.90;;;;;;4956374;28;20499;-83
2022/05/26 10:40:53;;;;;;;9.85;1.33;;;17.70;99.90;;;;;;4973397;28;20035;-83
2022/05/26 10:43:20;;;;;;;4.50;1.33;;;;;;;;;;4989516;28;20067;-82
2022/05/26 10:45:48;;;;;;;3.80;1.02;;;17.80;99.90;;;;;;5053269;28;20048;-83
2022/05/26 10:48:20;;;;;;;5.88;1.50;;;17.90;99.90;;;;;;5052143;28;20131;-82
2022/05/26 10:50:52;;;;;;;2.92;1.13;;;;;;;;;;5052556;28;20048;-83
2022/05/26 10:53:26;;;;;;;3.00;1.20;;;17.80;99.90;;;;;;5037937;28;20041;-83
2022/05/26 10:55:52;;;;;;;4.72;1.30;;;;;;;;;;5053945;28;20048;-84
2022/05/26 10:58:33;;;;;;;3.22;1.00;;;17.80;99.90;;;;;;5052690;28;20120;-84
2022/05/26 11:01:03;;;;;;;5.00;2.28;;;18.20;99.90;;;;;;5054101;28;20045;-82
2022/05/26 11:03:38;;;;;;;2.22;1.92;;;;;;;;;;5056977;28;20045;-82
2022/05/26 11:06:25;;;;;;;5.75;1.35;;;18.20;99.90;;;;;;5072009;28;20047;-83
2022/05/26 11:09:24;;;;;;;6.75;1.85;;;18.40;99.90;;;;;;5039074;28;20075;-84
2022/05/26 11:11:52;;;;;;;5.90;1.75;;;;;;;;;;5071532;28;20083;-82
2022/05/26 11:17:21;;;;;;;3.22;1.27;;;;;;;;;;5073626;28;20562;-82
2022/05/26 11:17:39;;;;;;;5.18;1.50;;;18.30;99.90;;;;;;5075019;28;20553;-82
2022/05/26 11:20:18;;;;;;;6.78;1.88;;;;;;;;;;5069778;28;20180;-83
2022/05/26 11:22:45;;;;;;;1.85;1.00;;;;;;;;;;5053272;28;20052;-83
2022/05/26 11:25:14;;;;;;;5.30;1.67;;;;;;;;;;5034954;28;20060;-83
2022/05/26 11:28:14;;;;;;;2.97;1.75;;;18.70;99.90;;;;;;5048997;28;20058;-82
2022/05/26 11:36:39;;;;;;;5.53;1.90;;;;;;;;;;5068671;28;20048;-82
2022/05/26 11:39:09;;;;;;;5.15;1.70;;;;;;;;;;5068389;28;20547;-83
2022/05/26 11:41:49;;;;;;;5.82;1.92;;;18.50;99.90;;;;;;5071257;28;20070;-83
2022/05/26 11:44:29;;;;;;;2.55;1.42;;;;;;;;;;5072476;28;20040;-81
2022/05/26 11:47:11;;;;;;;9.63;1.60;;;;;;;;;;5052268;28;20456;-83
2022/05/26 11:49:43;;;;;;;2.33;1.27;;;;;;;;;;5047246;28;20052;-83
2022/05/26 11:52:25;;;;;;;2.92;1.48;;;;;;;;;;5038255;28;20044;-83
2022/05/26 11:54:54;;;;;;;7.35;1.25;;;18.30;99.90;;;;;;5074219;28;20044;-83
2022/05/26 11:57:29;;;;;;;5.40;1.33;;;;;;;;;;5054845;28;20394;-82
2022/05/26 12:00:15;;;;;;;1.83;1.30;;;;;;;;;;5069502;28;20475;-83
2022/05/26 12:02:46;;;;;;;11.68;1.85;;;18.70;99.90;;;;;;5070539;28;20040;-83
2022/05/26 12:05:31;;;;;;;6.22;1.38;;;18.60;99.90;;;;;;5070889;28;20189;-83
2022/05/26 12:07:56;;;;;;;;;;;;;;;;;;5054429;28;20105;-82
2022/05/26 12:10:26;;;;;;;6.28;1.42;;;18.70;99.90;;;;;;5068863;28;19924;-85
2022/05/26 12:13:20;;;;;;;2.45;1.25;;;18.70;99.90;;;;;;5070929;28;20361;-84
2022/05/26 12:16:14;;;;;;;5.68;1.52;;;18.80;99.90;;;;;;5053969;28;20130;-83
2022/05/26 12:18:46;;;;;;;5.45;1.38;;;;;;;;;;5054279;28;20066;-84
2022/05/26 12:21:17;;;;;;;3.58;1.15;;;;;;;;;;5068834;28;20124;-84
2022/05/26 12:23:43;;;;;;;12.55;1.88;;;;;;;;;;5034063;28;20060;-84
2022/05/26 12:26:28;;;;;;;5.78;1.70;;;;;;;;;;5033987;28;20075;-84
2022/05/26 12:28:55;;;;;;;4.35;1.48;;;;;;;;;;5034103;28;20040;-85
2022/05/26 12:31:21;;;;;;;4.50;1.17;;;;;;;;;;5033348;28;20056;-83
2022/05/26 12:34:16;;;;;;;5.72;1.80;;;18.80;99.90;;;;;;5040733;28;20043;-84
2022/05/26 12:36:56;;;;;;;3.92;1.67;;;18.80;99.90;;;;;;5070024;28;20113;-85
2022/05/26 12:39:43;;;;;;;2.10;1.20;;;18.80;99.90;;;;;;5071007;28;20540;-85
2022/05/26 12:42:37;;;;;;;6.80;1.65;;;18.90;99.90;;;;;;5068880;28;20495;-83
2022/05/26 12:45:22;;;;;;;5.22;1.60;;;18.70;99.90;;;;;;5050473;28;20097;-84
2022/05/26 12:47:58;;;;;;;4.55;1.38;;;18.50;99.90;;;;;;5051837;28;20369;-85
2022/05/26 12:50:25;;;;;;;4.80;1.90;;;;;;;;;;5033666;28;20107;-85
2022/05/26 12:52:59;;;;;;;6.88;1.65;;;18.50;99.90;;;;;;5069027;28;20135;-83
2022/05/26 12:55:25;;;;;;;4.68;1.52;;;;;;;;;;5068515;28;20136;-84
2022/05/26 12:57:56;;;;;;;4.65;1.23;;;18.50;99.90;;;;;;5068124;28;20124;-84
2022/05/26 13:00:22;;;;;;;3.40;1.17;;;;;;;;;;5068311;28;20048;-84
2022/05/26 13:02:54;;;;;;;2.92;1.40;;;18.50;99.90;;;;;;5052161;28;20403;-84
2022/05/26 13:05:21;;;;;;;5.10;1.67;;;;;;;;;;5069557;28;20110;-84
2022/05/26 13:07:53;;;;;;;6.38;1.60;;;;;;;;;;5053021;28;20056;-84
2022/05/26 13:10:23;;;;;;;4.53;1.83;;;;;;;;;;5069677;28;20122;-84
2022/05/26 13:12:50;;;;;;;5.57;1.55;;;;;;;;;;5053047;28;20145;-83
2022/05/26 13:15:26;;;;;;;7.05;1.90;;;;;;;;;;5037255;28;20085;-85
2022/05/26 13:17:52;;;;;;;2.00;1.45;;;;;;;;;;5052688;28;20127;-84
2022/05/26 13:20:36;;;;;;;5.80;1.73;;;;;;;;;;5052123;28;20345;-83
2022/05/26 13:23:03;;;;;;;5.45;2.30;;;;;;;;;;5052711;28;20047;-84
2022/05/26 13:25:31;;;;;;;3.28;1.60;;;;;;;;;;5067454;28;20040;-84
2022/05/26 13:28:05;;;;;;;15.00;2.22;;;18.20;99.90;;;;;;5052756;28;20048;-86
2022/05/26 13:33:22;;;;;;;3.88;1.70;;;;;;;;;;5069398;28;19920;-85
2022/05/26 13:36:08;;;;;;;4.03;1.58;;;;;;;;;;5042759;28;20075;-86
2022/05/26 13:38:37;;;;;;;2.22;1.40;;;17.90;99.90;;;;;;5067173;28;20185;-86
2022/05/26 13:41:04;;;;;;;4.35;1.80;;;;;;;;;;5052510;28;20056;-84
2022/05/26 13:43:32;;;;;;;2.90;1.23;;;;;;;;;;5052212;28;20088;-85
2022/05/26 13:45:59;;;;;;;4.85;2.40;;;;;;;;;;5063938;28;20128;-85
2022/05/26 13:48:35;;;;;;;7.28;1.75;;;18.00;99.90;;;;;;5031764;28;20051;-85
2022/05/26 13:51:18;;;;;;;2.05;1.42;;;;;;;;;;5032352;28;20045;-86
2022/05/26 13:53:46;;;;;;;5.65;1.70;;;;;;;;;;5032284;28;20063;-85
2022/05/26 13:56:15;;;;;;;11.98;3.03;;;;;;;;;;5033725;28;20172;-87
2022/05/26 13:58:44;;;;;;;5.10;2.08;;;;;;;;;;5051614;28;20482;-85
2022/05/26 14:01:12;;;;;;;8.13;1.90;;;;;;;;;;5051798;28;20040;-85
2022/05/26 14:03:39;;;;;;;5.72;2.00;;;;;;;;;;5069371;28;20158;-84
2022/05/26 14:06:26;;;;;;;5.60;1.58;;;17.50;99.90;;;;;;5072221;28;20157;-86
2022/05/26 14:08:53;;;;;;;5.43;2.17;;;;;;;;;;5070270;28;20456;-87
2022/05/26 14:11:46;;;;;;;8.50;2.38;;;;;;;;;;5068543;28;20124;-88
2022/05/26 14:14:24;;;;;;;3.90;1.45;;;;;;;;;;5048550;28;20060;-87
2022/05/26 14:16:51;;;;;;;3.38;1.40;;;17.40;99.90;;;;;;5056121;28;20048;-86
2022/05/26 14:19:19;;;;;;;7.57;1.80;;;17.30;99.90;;;;;;5071637;28;20170;-87
2022/05/26 14:21:51;;;;;;;5.88;2.10;;;;;;;;;;5055309;28;20048;-84
2022/05/26 14:24:17;;;;;;;8.98;1.80;;;;;;;;;;5052236;28;20445;-83
2022/05/26 14:26:45;;;;;;;8.43;1.83;;;;;;;;;;5068654;28;20058;-84
2022/05/26 14:29:11;;;;;;;10.05;1.83;;;;;;;;;;5042137;28;20048;-84
2022/05/26 14:31:37;;;;;;;10.02;2.30;;;;;;;;;;5041571;28;20113;-83
2022/05/26 14:34:03;;;;;;;8.93;1.85;;;;;;;;;;5048877;28;20066;-84
2022/05/26 14:36:31;;;;;;;10.02;2.53;;;;;;;;;;5061299;28;20419;-84
2022/05/26 14:38:58;;;;;;;9.40;2.30;;;;;;;;;;5050100;28;20048;-84
2022/05/26 14:41:24;;;;;;;6.72;3.00;;;;;;;;;;5032144;28;20060;-84
2022/05/26 14:43:58;;;;;;;10.02;2.38;;;;;;;;;;5031812;28;20077;-85
2022/05/26 14:46:25;;;;;;;18.20;3.45;;;;;;;;;;5051943;28;20053;-84
2022/05/26 14:48:51;;;;;;;9.10;2.53;;;;;;;;;;5052288;28;20040;-84
2022/05/26 14:51:17;;;;;;;4.78;2.08;;;;;;;;;;5051377;28;20044;-83
2022/05/26 14:56:28;;;;;;;4.15;1.73;;;;;;;;;;5046532;28;20129;-85
2022/05/26 14:58:54;;;;;;;7.65;2.03;;;;;;;;;;5014411;28;20190;-83
2022/05/26 15:01:20;;;;;;;4.72;1.83;;;;;;;;;;5051088;28;20044;-84
2022/05/26 15:03:46;;;;;;;4.28;1.75;;;;;;;;;;5070959;28;20104;-84
2022/05/26 15:06:18;;;;;;;7.70;2.00;;;;;;;;;;5073304;28;20044;-85
2022/05/26 15:08:45;;;;;;;8.10;2.63;;;;;;;;;;5057664;28;20036;-84
2022/05/26 15:11:12;;;;;;;6.13;2.40;;;;;;;;;;5055813;28;20048;-83